Time;durP1;ratioP1;P1;durP2;ratioP2;P2;SDS_P1;SDS_P2;PMS_P1;PMS_P2;Temp;Humidity;BMP_temperature;BMP_pressure;BME280_temperature;BME280_humidity;BME280_pressure;Samples;Min_cycle;Max_cycle;Signal;HPM_P1;HPM_P2
2023/12/19 00:01:14;;;;;;;17.17;9.70;;;;;;;29.33;55.43;101095.91;4970967;28;65440;-39
2023/12/19 00:03:44;;;;;;;19.02;11.43;;;;;;;28.98;55.29;101035.75;4968143;28;70173;-39
2023/12/19 00:06:15;;;;;;;18.83;13.48;;;;;;;29.44;56.16;101102.56;4953915;28;66009;-39
2023/12/19 00:08:45;;;;;;;22.20;13.82;;;;;;;29.51;56.22;101108.84;4970310;28;69506;-39
2023/12/19 00:11:16;;;;;;;42.75;15.57;;;;;;;29.45;58.01;101106.94;4971037;28;66782;-40
2023/12/19 00:13:46;;;;;;;29.75;15.10;;;;;;;29.36;58.49;101117.97;4956603;28;70182;-40
2023/12/19 00:16:16;;;;;;;29.63;16.50;;;;;;;29.31;63.35;101122.28;4943728;28;65975;-40
2023/12/19 00:18:46;;;;;;;23.80;15.35;;;;;;;29.13;62.17;101106.66;4948717;28;69991;-40
2023/12/19 00:21:16;;;;;;;31.23;16.58;;;;;;;29.28;63.01;101136.19;4971165;28;66127;-41
2023/12/19 00:23:46;;;;;;;30.10;15.73;;;;;;;29.31;65.77;101147.44;4978941;28;70456;-40
2023/12/19 00:26:16;;;;;;;27.17;15.18;;;;;;;29.37;61.56;101143.94;4975180;28;65940;-40
2023/12/19 00:28:46;;;;;;;35.63;14.77;;;;;;;29.18;63.35;101131.19;4951935;28;69694;-41
2023/12/19 00:31:21;;;;;;;19.70;13.60;;;;;;;29.23;66.12;101144.94;4940741;28;65241;-41
2023/12/19 00:33:51;;;;;;;27.83;15.10;;;;;;;29.28;62.62;101153.28;4966684;28;70191;-41
2023/12/19 00:36:22;;;;;;;30.65;14.52;;;;;;;29.29;64.12;101154.91;4958296;28;65478;-39
2023/12/19 00:38:53;;;;;;;21.60;13.00;;;;;;;29.23;62.02;101155.75;4973573;28;70029;-39
2023/12/19 00:41:22;;;;;;;31.02;14.43;;;;;;;29.24;63.00;101161.97;4977245;28;66595;-40
2023/12/19 00:43:52;;;;;;;30.00;14.60;;;;;;;29.19;62.20;101159.88;4960256;28;69980;-39
2023/12/19 00:46:22;;;;;;;31.67;14.63;;;;;;;29.19;63.63;101176.06;4973415;28;66363;-40
2023/12/19 00:48:52;;;;;;;25.33;14.35;;;;;;;29.21;61.91;101174.00;4956221;28;70361;-40
2023/12/19 00:51:23;;;;;;;34.25;12.95;;;;;;;29.22;63.04;101166.75;4951432;28;66031;-40
2023/12/19 00:53:53;;;;;;;22.75;13.95;;;;;;;29.22;62.61;101170.25;4971913;28;70468;-40
2023/12/19 00:56:23;;;;;;;19.73;13.07;;;;;;;29.23;63.15;101176.53;4973026;28;66252;-39
2023/12/19 00:58:54;;;;;;;20.45;12.82;;;;;;;29.24;65.34;101167.38;4954588;28;69894;-39
2023/12/19 01:01:24;;;;;;;20.48;12.73;;;;;;;29.33;63.97;101172.38;4964557;28;66632;-38
2023/12/19 01:03:54;;;;;;;20.42;12.63;;;;;;;29.38;65.91;101169.91;4974518;28;70484;-39
2023/12/19 01:06:25;;;;;;;29.23;13.40;;;;;;;29.32;62.99;101151.81;4976489;28;65633;-39
2023/12/19 01:08:56;;;;;;;22.92;13.00;;;;;;;29.48;65.53;101174.94;4978346;28;69275;-39
2023/12/19 01:11:26;;;;;;;25.02;12.05;;;;;;;29.59;61.09;101185.16;4977843;28;66888;-40
2023/12/19 01:13:56;;;;;;;18.05;11.50;;;;;;;29.68;60.62;101183.13;4964953;28;69503;-40
2023/12/19 01:16:28;;;;;;;18.15;11.15;;;;;;;29.71;59.92;101173.78;4969303;28;66460;-40
2023/12/19 01:19:00;;;;;;;19.40;11.63;;;;;;;29.72;59.76;101187.06;4969161;28;71248;-39
2023/12/19 01:21:31;;;;;;;20.70;11.05;;;;;;;29.80;59.65;101178.75;4969184;28;66374;-40
2023/12/19 01:24:01;;;;;;;13.75;10.30;;;;;;;29.83;59.72;101183.75;4971521;28;70520;-40
2023/12/19 01:26:34;;;;;;;11.73;10.15;;;;;;;29.89;59.62;101184.81;4969501;28;65538;-40
2023/12/19 01:29:04;;;;;;;13.98;9.90;;;;;;;29.91;59.41;101185.44;4966277;28;69890;-41
2023/12/19 01:31:36;;;;;;;13.77;9.90;;;;;;;29.90;59.12;101180.25;4966039;28;66100;-40
2023/12/19 01:34:07;;;;;;;14.80;10.23;;;;;;;29.98;59.62;101185.47;4955696;28;70670;-40
2023/12/19 01:36:39;;;;;;;13.00;10.27;;;;;;;29.33;59.67;101075.09;4966613;28;65403;-40
2023/12/19 01:39:27;;;;;;;16.98;10.25;;;;;;;29.71;59.13;101120.53;4969050;28;69341;-40
2023/12/19 01:41:57;;;;;;;18.98;9.82;;;;;;;30.01;59.26;101164.22;4949568;28;66231;-40
2023/12/19 01:44:27;;;;;;;11.15;9.93;;;;;;;30.00;59.53;101150.91;4963415;28;68897;-40
2023/12/19 01:46:57;;;;;;;14.00;10.05;;;;;;;30.08;59.49;101164.22;4970629;28;66803;-40
2023/12/19 01:49:28;;;;;;;12.00;9.15;;;;;;;30.11;58.90;101169.22;4960942;28;70718;-40
2023/12/19 01:51:58;;;;;;;12.93;8.55;;;;;;;30.14;59.06;101174.19;4948193;28;66751;-40
2023/12/19 01:54:29;;;;;;;13.35;8.23;;;;;;;30.14;59.18;101163.38;4964917;28;70078;-40
2023/12/19 01:56:59;;;;;;;11.30;9.23;;;;;;;30.18;59.42;101175.47;4944157;28;66270;-40
2023/12/19 01:59:29;;;;;;;9.32;8.13;;;;;;;30.19;59.12;101168.19;4935069;28;70008;-40
2023/12/19 02:01:59;;;;;;;10.30;8.55;;;;;;;30.23;59.36;101172.19;4966186;28;66248;-40
2023/12/19 02:04:29;;;;;;;10.77;8.20;;;;;;;30.24;59.35;101177.38;4944570;28;70593;-40
2023/12/19 02:06:59;;;;;;;8.73;7.70;;;;;;;30.27;58.88;101168.00;4966032;28;65603;-40
2023/12/19 02:09:31;;;;;;;10.93;7.85;;;;;;;30.27;59.32;101168.81;4964929;28;70549;-40
2023/12/19 02:12:02;;;;;;;10.38;8.00;;;;;;;30.28;59.04;101178.63;4964777;28;65739;-40
2023/12/19 02:14:32;;;;;;;13.88;8.27;;;;;;;30.30;58.96;101172.16;4931906;28;69939;-40
2023/12/19 02:17:02;;;;;;;11.50;7.78;;;;;;;30.35;59.29;101177.78;4967242;28;65371;-40
2023/12/19 02:19:32;;;;;;;9.93;8.10;;;;;;;30.37;59.05;101178.38;4965137;28;69864;-40
2023/12/19 02:22:03;;;;;;;8.82;7.80;;;;;;;30.36;59.11;101176.72;4966081;28;66321;-40
2023/12/19 02:24:33;;;;;;;8.93;8.13;;;;;;;30.41;58.79;101172.34;4950459;28;69758;-39
2023/12/19 02:27:03;;;;;;;8.30;7.50;;;;;;;30.37;59.25;101162.13;4966353;28;66214;-40
2023/12/19 02:29:35;;;;;;;8.23;7.32;;;;;;;30.43;59.08;101172.16;4968942;28;70445;-40
2023/12/19 02:32:05;;;;;;;11.60;7.57;;;;;;;30.41;58.81;101163.41;4965784;28;65654;-40
2023/12/19 02:34:36;;;;;;;11.38;8.05;;;;;;;30.47;58.91;101162.56;4949726;28;69609;-39
2023/12/19 02:37:06;;;;;;;14.15;7.32;;;;;;;30.49;59.35;101171.31;4960098;28;65296;-40
2023/12/19 02:39:37;;;;;;;8.80;7.90;;;;;;;30.47;59.05;101151.72;4962697;28;70388;-40
2023/12/19 02:42:07;;;;;;;8.63;7.43;;;;;;;30.54;59.35;101163.38;4955956;28;65851;-40
2023/12/19 02:44:37;;;;;;;7.55;6.88;;;;;;;30.55;58.85;101164.22;4962889;28;70087;-40
2023/12/19 02:47:07;;;;;;;9.10;7.60;;;;;;;30.59;58.94;101177.13;4974307;28;67024;-39
2023/12/19 02:49:37;;;;;;;7.78;7.18;;;;;;;30.46;59.23;101150.06;4967444;28;70878;-40
2023/12/19 02:52:07;;;;;;;8.85;7.68;;;;;;;30.63;59.09;101159.41;4968459;28;65595;-39
2023/12/19 02:54:36;;;;;;;8.02;7.38;;;;;;;30.53;58.79;101150.88;4968401;28;69395;-39
2023/12/19 02:57:07;;;;;;;11.07;7.40;;;;;;;30.61;59.14;101164.19;4965064;28;66537;-40
2023/12/19 02:59:37;;;;;;;7.80;7.10;;;;;;;30.67;59.17;101165.22;4979173;28;69287;-40
2023/12/19 03:02:07;;;;;;;7.97;7.28;;;;;;;30.69;58.70;101163.13;4969048;28;66501;-40
2023/12/19 03:04:38;;;;;;;7.25;6.65;;;;;;;30.68;59.09;101167.72;4965584;28;69983;-40
2023/12/19 03:07:10;;;;;;;8.38;7.47;;;;;;;30.62;59.18;101136.09;4976424;28;65407;-41
2023/12/19 03:09:40;;;;;;;8.02;7.32;;;;;;;30.74;59.43;101166.03;4942712;28;69248;-40
2023/12/19 03:12:11;;;;;;;8.43;7.65;;;;;;;30.79;58.89;101154.59;4972116;28;66037;-41
2023/12/19 03:14:44;;;;;;;7.50;6.90;;;;;;;30.81;59.21;101158.75;4971740;28;43043;-40
2023/12/19 03:17:14;;;;;;;12.32;7.70;;;;;;;30.85;58.86;101160.00;4966266;28;66309;-39
2023/12/19 03:19:45;;;;;;;7.38;6.78;;;;;;;30.87;59.36;101157.06;4968172;28;70358;-40
2023/12/19 03:22:15;;;;;;;7.93;7.22;;;;;;;30.86;59.12;101152.69;4977374;28;65443;-41
2023/12/19 03:24:45;;;;;;;7.72;7.13;;;;;;;30.91;59.21;101158.31;4958119;28;69762;-43
2023/12/19 03:27:15;;;;;;;8.00;7.30;;;;;;;30.93;58.78;101153.53;4976215;28;65743;-39
2023/12/19 03:29:46;;;;;;;8.48;7.50;;;;;;;30.91;59.33;101139.34;4976742;28;70526;-40
2023/12/19 03:32:17;;;;;;;8.13;7.35;;;;;;;30.97;58.87;101152.03;4978259;28;66201;-41
2023/12/19 03:34:47;;;;;;;7.03;6.43;;;;;;;30.98;58.92;101136.59;4965917;28;70089;-40
2023/12/19 03:37:17;;;;;;;7.57;6.78;;;;;;;31.01;59.35;101133.47;4978305;28;66276;-40
2023/12/19 03:39:47;;;;;;;7.85;6.95;;;;;;;31.04;59.08;101136.59;4976323;28;70286;-39
2023/12/19 03:42:17;;;;;;;8.02;7.22;;;;;;;31.00;58.91;101129.91;4964317;28;65972;-40
2023/12/19 03:44:47;;;;;;;8.40;6.70;;;;;;;31.07;59.08;101141.56;4955432;28;69891;-40
2023/12/19 03:47:17;;;;;;;8.82;7.00;;;;;;;31.09;59.37;101147.63;4945251;28;66094;-39
2023/12/19 03:49:47;;;;;;;11.40;6.43;;;;;;;31.11;58.76;101137.38;4964101;28;70431;-40
2023/12/19 03:52:18;;;;;;;8.10;6.93;;;;;;;31.13;58.62;101124.44;4943482;28;65981;-41
2023/12/19 03:54:48;;;;;;;6.82;6.32;;;;;;;31.15;59.09;101138.63;4961742;28;69678;-40
2023/12/19 03:57:18;;;;;;;6.93;6.20;;;;;;;31.19;58.94;101130.06;4974590;28;65797;-41
2023/12/19 03:59:48;;;;;;;7.63;6.90;;;;;;;31.21;58.85;101125.25;4953050;28;69158;-41
2023/12/19 04:02:18;;;;;;;7.15;6.45;;;;;;;31.22;58.88;101122.31;4971455;28;66091;-40
2023/12/19 04:04:49;;;;;;;6.88;6.28;;;;;;;31.14;59.01;101101.72;4972513;28;70522;-40
2023/12/19 04:07:19;;;;;;;7.32;6.80;;;;;;;31.28;58.85;101126.03;4959100;28;65087;-40
2023/12/19 04:09:49;;;;;;;7.22;6.63;;;;;;;31.14;58.65;101103.59;4976073;28;70173;-41
2023/12/19 04:12:19;;;;;;;6.43;5.82;;;;;;;31.32;58.89;101121.84;4969515;28;66300;-40
2023/12/19 04:14:49;;;;;;;6.90;6.28;;;;;;;31.31;58.77;101120.19;4967688;28;70120;-40
2023/12/19 04:17:20;;;;;;;6.53;6.03;;;;;;;31.36;58.75;101125.81;4959780;28;65599;-40
2023/12/19 04:19:51;;;;;;;6.80;6.30;;;;;;;31.33;58.78;101104.53;4964261;28;69169;-40
2023/12/19 04:22:21;;;;;;;6.95;6.35;;;;;;;31.39;58.70;101106.41;4961701;28;66038;-40
2023/12/19 04:24:51;;;;;;;7.57;5.75;;;;;;;31.42;58.21;101095.13;4965389;28;69944;-40
2023/12/19 04:27:22;;;;;;;7.15;6.32;;;;;;;31.45;58.78;101096.56;4950293;28;66154;-40
2023/12/19 04:29:55;;;;;;;6.40;5.90;;;;;;;31.46;58.29;101090.94;4975451;28;70719;-40
2023/12/19 04:32:25;;;;;;;7.75;6.60;;;;;;;31.49;58.86;101090.50;4976511;28;66087;-41
2023/12/19 04:34:55;;;;;;;6.70;5.95;;;;;;;31.22;58.51;101045.59;4943367;28;69960;-40
2023/12/19 04:37:25;;;;;;;6.80;6.25;;;;;;;31.26;58.52;101041.41;4945189;28;66488;-40
2023/12/19 04:39:57;;;;;;;6.85;5.85;;;;;;;31.55;58.68;101077.94;4943298;28;69971;-40
2023/12/19 04:42:27;;;;;;;6.25;5.75;;;;;;;31.56;58.59;101072.28;4963019;28;65078;-41
2023/12/19 04:44:57;;;;;;;5.78;5.28;;;;;;;31.60;58.34;101064.56;4965768;28;70558;-40
2023/12/19 04:47:28;;;;;;;5.90;5.50;;;;;;;31.60;58.41;101054.53;4972877;28;65770;-40
2023/12/19 04:49:58;;;;;;;6.13;5.38;;;;;;;31.63;58.41;101063.28;4960313;28;69810;-41
2023/12/19 04:52:29;;;;;;;6.30;5.70;;;;;;;31.57;58.81;101038.69;4950152;28;65416;-41
2023/12/19 04:54:59;;;;;;;7.85;5.50;;;;;;;31.64;58.49;101038.63;4938669;28;70665;-41
2023/12/19 04:57:29;;;;;;;5.45;5.05;;;;;;;31.59;58.54;101025.75;4921048;28;66022;-41
2023/12/19 04:59:59;;;;;;;5.63;5.13;;;;;;;31.72;58.98;101035.66;4969509;28;70442;-40
2023/12/19 05:02:30;;;;;;;5.38;4.88;;;;;;;31.75;58.09;101026.22;4944139;28;65906;-40
2023/12/19 05:05:00;;;;;;;5.88;5.07;;;;;;;31.75;58.44;101023.53;4972553;28;69981;-41
2023/12/19 05:07:32;;;;;;;6.00;5.50;;;;;;;31.78;58.25;101006.81;4970239;28;66859;-41
2023/12/19 05:10:02;;;;;;;6.60;5.93;;;;;;;31.78;58.48;100998.66;4968108;28;70163;-41
2023/12/19 05:12:37;;;;;;;5.90;5.40;;;;;;;31.55;58.34;100953.22;4965360;28;65494;-40
2023/12/19 05:15:07;;;;;;;6.28;5.68;;;;;;;31.81;58.40;100988.19;4954052;28;70041;-41
2023/12/19 05:17:38;;;;;;;10.60;5.22;;;;;;;31.84;58.37;100984.19;4953183;28;65937;-40
2023/12/19 05:20:08;;;;;;;7.18;5.30;;;;;;;31.88;58.26;100990.03;4966494;28;69551;-40
2023/12/19 05:22:39;;;;;;;4.97;4.55;;;;;;;31.90;58.17;100977.91;4971570;28;66384;-40
2023/12/19 05:25:09;;;;;;;5.10;4.60;;;;;;;31.80;58.24;100947.75;4971989;28;69056;-40
2023/12/19 05:27:43;;;;;;;5.00;4.57;;;;;;;31.92;58.11;100970.38;4974734;28;66479;-41
2023/12/19 05:30:15;;;;;;;5.03;4.63;;;;;;;31.94;58.16;100960.13;4978110;28;69563;-41
2023/12/19 05:32:45;;;;;;;5.43;4.95;;;;;;;31.94;58.34;100952.00;4950073;28;65482;-41
2023/12/19 05:35:15;;;;;;;4.82;4.43;;;;;;;31.96;58.29;100947.19;4972300;28;68996;-41
2023/12/19 05:37:45;;;;;;;5.00;4.60;;;;;;;31.93;58.15;100922.38;4955587;28;66649;-41
2023/12/19 05:40:15;;;;;;;7.60;4.93;;;;;;;31.98;58.04;100922.50;4972331;28;70370;-41
2023/12/19 05:42:45;;;;;;;5.32;4.90;;;;;;;31.98;58.10;100909.81;4960956;28;65687;-40
2023/12/19 05:45:15;;;;;;;5.18;4.78;;;;;;;32.05;57.97;100915.97;4960572;28;71005;-40
2023/12/19 05:47:45;;;;;;;4.78;4.47;;;;;;;32.01;58.09;100903.91;4954323;28;66062;-40
2023/12/19 05:50:16;;;;;;;5.10;4.38;;;;;;;32.09;57.85;100902.75;4981020;28;70681;-40
2023/12/19 05:52:46;;;;;;;4.35;3.95;;;;;;;32.12;57.92;100898.75;4952695;28;65293;-40
2023/12/19 05:55:17;;;;;;;5.55;4.40;;;;;;;32.14;57.49;100891.22;4965879;28;69681;-40
2023/12/19 05:57:47;;;;;;;4.68;4.28;;;;;;;32.16;57.74;100884.53;4975717;28;65934;-40
2023/12/19 06:00:17;;;;;;;4.85;4.45;;;;;;;32.05;58.01;100855.44;4974881;28;69366;-40
2023/12/19 06:02:50;;;;;;;4.22;3.92;;;;;;;32.12;57.67;100860.78;4964823;28;66245;-40
2023/12/19 06:05:20;;;;;;;4.68;4.35;;;;;;;32.23;57.62;100873.56;4963027;28;70678;-40
2023/12/19 06:07:51;;;;;;;4.32;4.03;;;;;;;32.26;57.99;100875.81;4957071;28;66831;-40
2023/12/19 06:10:21;;;;;;;5.30;3.92;;;;;;;32.25;57.59;100866.03;4964132;28;70429;-40
2023/12/19 06:12:52;;;;;;;4.70;4.00;;;;;;;32.28;57.43;100871.81;4943941;28;66724;-40
2023/12/19 06:15:22;;;;;;;4.65;4.25;;;;;;;32.32;57.51;100871.34;4973620;28;70511;-41
2023/12/19 06:17:52;;;;;;;4.70;4.25;;;;;;;32.34;57.51;100875.50;4964025;28;66345;-41
2023/12/19 06:20:22;;;;;;;5.05;4.32;;;;;;;32.36;57.34;100865.25;4972422;28;70737;-40
2023/12/19 06:22:52;;;;;;;5.32;4.00;;;;;;;32.37;57.37;100858.75;4963860;28;66028;-40
2023/12/19 06:25:22;;;;;;;4.32;4.03;;;;;;;32.41;57.35;100854.53;4971674;28;70455;-40
2023/12/19 06:27:55;;;;;;;3.92;3.60;;;;;;;32.16;57.18;100802.28;4947869;28;66403;-40
2023/12/19 06:30:26;;;;;;;3.55;3.25;;;;;;;32.43;57.12;100838.84;4944768;28;70514;-40
2023/12/19 06:33:02;;;;;;;4.53;4.13;;;;;;;32.41;57.06;100835.50;4967653;28;66194;-41
2023/12/19 06:35:33;;;;;;;3.90;3.58;;;;;;;32.49;57.37;100829.78;4970996;28;70466;-40
2023/12/19 06:38:03;;;;;;;4.75;4.10;;;;;;;32.40;57.20;100814.00;4948894;28;65722;-41
2023/12/19 06:40:33;;;;;;;4.53;3.78;;;;;;;32.54;57.17;100825.53;4944570;28;70650;-41
2023/12/19 06:43:04;;;;;;;3.95;3.55;;;;;;;32.56;57.00;100818.00;4966250;28;66923;-40
2023/12/19 06:45:34;;;;;;;4.25;3.85;;;;;;;32.54;57.06;100809.25;4968770;28;69705;-40
2023/12/19 06:48:05;;;;;;;4.13;3.58;;;;;;;32.60;57.03;100808.31;4954811;28;66024;-41
2023/12/19 06:50:35;;;;;;;3.70;3.40;;;;;;;32.60;57.00;100797.47;4979207;28;70658;-41
2023/12/19 06:53:05;;;;;;;4.70;3.40;;;;;;;32.33;57.04;100748.97;4980970;28;66033;-41
2023/12/19 06:55:35;;;;;;;4.25;3.85;;;;;;;32.64;57.08;100788.59;4971073;28;70190;-41
2023/12/19 06:58:05;;;;;;;3.60;3.30;;;;;;;32.68;56.75;100784.38;4967059;28;65862;-40
2023/12/19 07:00:36;;;;;;;3.40;3.17;;;;;;;32.68;57.09;100778.94;4963207;28;69789;-41
2023/12/19 07:03:07;;;;;;;5.32;3.70;;;;;;;32.70;56.55;100774.06;4962835;28;66187;-41
2023/12/19 07:05:37;;;;;;;5.05;3.75;;;;;;;32.70;56.77;100768.63;4966324;28;70608;-41
2023/12/19 07:08:07;;;;;;;4.50;3.45;;;;;;;32.75;57.08;100767.94;4958781;28;66069;-41
2023/12/19 07:10:37;;;;;;;4.00;3.70;;;;;;;32.82;56.71;100774.09;4974702;28;71188;-40
2023/12/19 07:13:08;;;;;;;3.50;3.20;;;;;;;32.86;56.73;100775.25;4958083;28;66982;-40
2023/12/19 07:15:38;;;;;;;3.28;3.08;;;;;;;32.88;56.58;100767.72;4961319;28;69593;-40
2023/12/19 07:18:08;;;;;;;3.83;3.30;;;;;;;32.90;56.63;100765.59;4962732;28;66318;-39
2023/12/19 07:20:39;;;;;;;4.00;3.55;;;;;;;32.76;56.48;100726.13;4941536;28;69371;-40
2023/12/19 07:23:09;;;;;;;3.67;3.38;;;;;;;32.93;56.42;100753.41;4937783;28;66480;-41
2023/12/19 07:25:41;;;;;;;3.58;3.28;;;;;;;32.76;56.56;100720.69;4956741;28;69404;-41
2023/12/19 07:28:11;;;;;;;4.75;4.38;;;;;;;33.00;56.54;100754.13;4928683;28;66107;-40
2023/12/19 07:30:41;;;;;;;3.83;3.42;;;;;;;33.04;56.27;100743.63;4965694;28;69373;-41
2023/12/19 07:33:12;;;;;;;3.40;3.10;;;;;;;33.06;56.55;100753.19;4968243;28;65585;-40
2023/12/19 07:35:42;;;;;;;3.50;3.10;;;;;;;33.05;56.27;100751.53;4965545;28;70058;-40
2023/12/19 07:38:13;;;;;;;3.60;3.30;;;;;;;33.08;56.44;100736.66;4972351;28;66181;-41
2023/12/19 07:40:43;;;;;;;3.42;3.13;;;;;;;33.07;55.98;100729.53;4951095;28;70148;-40
2023/12/19 07:43:13;;;;;;;3.47;3.20;;;;;;;33.13;56.51;100737.59;4965586;28;66403;-40
2023/12/19 07:45:43;;;;;;;3.00;2.80;;;;;;;33.15;56.15;100735.47;4970540;28;70356;-40
2023/12/19 07:48:13;;;;;;;3.63;3.33;;;;;;;33.18;56.01;100733.31;4971944;28;66581;-40
2023/12/19 07:50:43;;;;;;;3.60;3.30;;;;;;;33.16;55.73;100725.41;4972387;28;70377;-40
2023/12/19 07:53:13;;;;;;;3.25;2.95;;;;;;;33.23;56.00;100736.16;4936619;28;66237;-40
2023/12/19 07:55:43;;;;;;;3.25;3.03;;;;;;;33.24;55.99;100735.06;4960617;28;70045;-40
2023/12/19 07:58:13;;;;;;;3.85;2.95;;;;;;;33.01;55.83;100700.63;4964741;28;65904;-40
2023/12/19 08:00:43;;;;;;;3.50;3.13;;;;;;;33.27;55.92;100740.88;4970288;28;70976;-40
2023/12/19 08:03:15;;;;;;;3.40;3.10;;;;;;;33.25;55.96;100734.84;4947541;28;66684;-40
2023/12/19 08:05:50;;;;;;;3.30;3.00;;;;;;;33.25;55.75;100734.03;4979648;28;70490;-41
2023/12/19 08:08:20;;;;;;;3.47;3.10;;;;;;;33.28;55.93;100738.97;4966182;28;65871;-41
2023/12/19 08:10:51;;;;;;;3.42;3.13;;;;;;;33.23;55.64;100725.28;4951859;28;70403;-41
2023/12/19 08:13:22;;;;;;;5.78;3.55;;;;;;;33.31;55.93;100739.31;4944694;28;65350;-41
2023/12/19 08:15:55;;;;;;;7.75;3.10;;;;;;;33.34;55.72;100733.38;4972368;28;70501;-41
2023/12/19 08:18:25;;;;;;;3.20;2.97;;;;;;;33.33;56.03;100739.91;4970124;28;65624;-41
2023/12/19 08:20:56;;;;;;;2.88;2.67;;;;;;;32.93;55.80;100672.72;4976381;28;70442;-41
2023/12/19 08:23:26;;;;;;;3.13;2.83;;;;;;;33.38;55.61;100750.88;4954623;28;66011;-41
2023/12/19 08:25:56;;;;;;;3.75;2.88;;;;;;;33.37;55.88;100743.78;4963008;28;70859;-40
2023/12/19 08:28:27;;;;;;;3.58;3.25;;;;;;;33.39;55.72;100743.53;4975894;28;65442;-40
2023/12/19 08:30:56;;;;;;;3.50;3.20;;;;;;;33.43;55.64;100752.03;4972903;28;69364;-40
2023/12/19 08:33:28;;;;;;;3.30;3.00;;;;;;;33.44;55.62;100751.00;4968652;28;67032;-41
2023/12/19 08:35:58;;;;;;;3.83;3.43;;;;;;;33.43;55.58;100752.03;4950266;28;69331;-40
2023/12/19 08:38:28;;;;;;;3.50;2.70;;;;;;;33.45;55.71;100747.19;4961421;28;64988;-40
2023/12/19 08:40:58;;;;;;;3.58;3.28;;;;;;;33.45;55.55;100739.03;4969920;28;70997;-41
2023/12/19 08:43:29;;;;;;;3.40;3.10;;;;;;;33.47;55.83;100748.63;4962408;28;66639;-42
2023/12/19 08:45:58;;;;;;;4.07;2.55;;;;;;;33.38;55.50;100745.44;4967583;28;70765;-41
2023/12/19 08:48:29;;;;;;;3.08;2.78;;;;;;;33.46;55.57;100746.97;4967093;28;66959;-41
2023/12/19 08:50:59;;;;;;;3.00;2.80;;;;;;;33.48;55.72;100749.44;4959209;28;70460;-41
2023/12/19 08:53:30;;;;;;;3.58;3.28;;;;;;;33.38;55.44;100740.00;4963985;28;65855;-40
2023/12/19 08:56:00;;;;;;;2.70;2.50;;;;;;;33.49;55.48;100757.38;4947933;28;70803;-41
2023/12/19 08:58:30;;;;;;;3.28;2.97;;;;;;;33.50;55.53;100758.19;4929679;28;66523;-41
2023/12/19 09:01:00;;;;;;;2.77;2.57;;;;;;;33.48;55.89;100749.44;4946049;28;70461;-41
2023/12/19 09:03:31;;;;;;;3.00;2.78;;;;;;;33.52;55.35;100756.91;4967235;28;65341;-41
2023/12/19 09:06:01;;;;;;;3.28;2.97;;;;;;;33.51;55.44;100759.81;4951449;28;69917;-41
2023/12/19 09:08:32;;;;;;;5.95;3.22;;;;;;;33.45;55.31;100749.91;4976062;28;65922;-40
2023/12/19 09:11:04;;;;;;;3.17;2.87;;;;;;;33.40;55.58;100747.09;4966036;28;71995;-41
2023/12/19 09:13:38;;;;;;;5.07;3.13;;;;;;;33.52;55.39;100769.66;4966361;28;66254;-41
2023/12/19 09:16:08;;;;;;;3.53;3.13;;;;;;;33.52;55.65;100764.22;4955124;28;69403;-40
2023/12/19 09:18:39;;;;;;;2.92;2.72;;;;;;;33.53;55.51;100768.59;4953972;28;66129;-41
2023/12/19 09:21:09;;;;;;;3.90;3.03;;;;;;;33.50;55.34;100774.50;4962017;28;69648;-40
2023/12/19 09:23:39;;;;;;;6.68;3.40;;;;;;;33.22;56.17;100780.72;4967647;28;66070;-39
2023/12/19 09:26:10;;;;;;;14.13;4.03;;;;;;;32.91;56.54;100767.22;4969070;28;69526;-39
2023/12/19 09:28:41;;;;;;;5.47;4.03;;;;;;;32.88;57.33;100778.56;4981683;28;65845;-39
2023/12/19 09:31:11;;;;;;;6.00;4.07;;;;;;;32.81;58.13;100793.34;4966319;28;69942;-39
2023/12/19 09:33:42;;;;;;;11.48;4.05;;;;;;;32.73;57.78;100797.22;4973511;28;66611;-40
2023/12/19 09:36:21;;;;;;;11.55;4.80;;;;;;;32.70;58.18;100798.50;4968214;28;70668;-39
2023/12/19 09:38:51;;;;;;;8.05;5.13;;;;;;;32.73;57.90;100797.22;4968319;28;66916;-39
2023/12/19 09:41:21;;;;;;;11.40;5.07;;;;;;;32.71;57.72;100810.22;4970752;28;70175;-37
2023/12/19 09:43:51;;;;;;;12.45;4.97;;;;;;;32.63;57.87;100819.53;4959209;28;66472;-38
2023/12/19 09:46:24;;;;;;;6.05;4.90;;;;;;;32.20;57.82;100741.03;4974658;28;70400;-40
2023/12/19 09:48:55;;;;;;;8.13;5.07;;;;;;;32.61;58.68;100821.66;4967318;28;66476;-40
2023/12/19 09:51:32;;;;;;;9.10;4.85;;;;;;;32.28;59.13;100773.28;4978229;28;70175;-40
2023/12/19 09:54:02;;;;;;;9.15;5.70;;;;;;;32.64;59.07;100831.22;4963959;28;66100;-39
2023/12/19 09:56:32;;;;;;;15.07;4.78;;;;;;;32.66;58.89;100829.13;4955358;28;69607;-39
2023/12/19 09:59:04;;;;;;;15.10;5.57;;;;;;;32.66;59.20;100834.53;4975100;28;66075;-40
2023/12/19 10:01:37;;;;;;;13.90;5.35;;;;;;;32.64;59.35;100832.03;4962002;28;69526;-39
2023/12/19 10:04:13;;;;;;;7.22;5.35;;;;;;;32.65;59.09;100841.00;4958175;28;67287;-38
2023/12/19 10:06:58;;;;;;;14.30;4.55;;;;;;;32.54;60.07;100844.53;4955610;28;70066;-39
2023/12/19 10:09:29;;;;;;;7.93;4.60;;;;;;;32.60;60.18;100851.78;4963884;28;67167;-39
2023/12/19 10:12:10;;;;;;;6.20;4.25;;;;;;;32.49;60.01;100837.94;4964859;28;70324;-40
2023/12/19 10:14:41;;;;;;;8.27;5.07;;;;;;;32.56;60.71;100856.81;4997244;28;66595;-40
2023/12/19 10:17:17;;;;;;;4.95;4.45;;;;;;;32.28;59.92;100808.56;4989196;28;70218;-39
2023/12/19 10:19:47;;;;;;;4.00;3.70;;;;;;;32.62;59.91;100865.94;4965472;28;65964;-39
2023/12/19 10:22:20;;;;;;;5.03;3.65;;;;;;;32.61;60.38;100869.72;4982939;28;70027;-39
2023/12/19 10:25:00;;;;;;;5.20;3.75;;;;;;;32.13;60.81;100805.47;4966389;28;66421;-40
2023/12/19 10:27:30;;;;;;;9.10;4.05;;;;;;;32.53;60.18;100862.72;4987033;28;70135;-38
2023/12/19 10:30:17;;;;;;;7.88;4.00;;;;;;;32.53;61.66;100883.63;4994215;28;66797;-39
2023/12/19 10:32:48;;;;;;;6.13;3.70;;;;;;;32.52;61.74;100880.09;4989867;28;69377;-38
2023/12/19 10:35:18;;;;;;;5.80;4.15;;;;;;;32.62;60.44;100880.34;4986602;28;66240;-39
2023/12/19 10:37:49;;;;;;;4.30;3.90;;;;;;;32.58;61.90;100891.91;4985216;28;70253;-40
2023/12/19 10:40:20;;;;;;;5.97;3.50;;;;;;;32.53;60.71;100880.91;4974455;28;67350;-39
2023/12/19 10:42:58;;;;;;;4.57;4.07;;;;;;;32.58;62.35;100892.72;4982709;28;70402;-38
2023/12/19 10:45:28;;;;;;;5.40;4.35;;;;;;;32.57;62.64;100891.09;4992008;28;65406;-38
2023/12/19 10:47:58;;;;;;;11.27;4.43;;;;;;;32.60;62.41;100900.66;4985762;28;69526;-40
2023/12/19 10:50:29;;;;;;;4.15;3.67;;;;;;;32.62;61.34;100914.81;4967215;28;66535;-40
2023/12/19 10:53:05;;;;;;;18.85;3.90;;;;;;;32.36;62.46;100872.56;4994279;28;70427;-40
2023/12/19 10:55:45;;;;;;;4.38;3.97;;;;;;;32.59;63.18;100915.28;4996246;28;66601;-42
2023/12/19 10:58:20;;;;;;;5.30;4.38;;;;;;;32.56;63.15;100921.19;4991207;28;70044;-39
2023/12/19 11:00:52;;;;;;;5.53;4.70;;;;;;;32.54;63.53;100915.13;4990152;28;66529;-40
2023/12/19 11:03:30;;;;;;;5.30;4.82;;;;;;;32.17;63.33;100864.44;4987762;28;70908;-40
2023/12/19 11:06:08;;;;;;;11.65;5.15;;;;;;;32.55;63.81;100952.13;4993678;28;66778;-39
2023/12/19 11:08:41;;;;;;;10.55;5.90;;;;;;;32.11;63.56;100853.69;4993941;28;69942;-40
2023/12/19 11:11:30;;;;;;;9.02;5.93;;;;;;;32.52;64.84;100941.72;4982132;28;66139;-40
2023/12/19 11:14:03;;;;;;;8.25;5.45;;;;;;;32.44;64.96;100913.78;4967291;28;69883;-40
2023/12/19 11:16:33;;;;;;;6.72;6.10;;;;;;;32.56;65.41;100937.47;4952558;28;66143;-42
2023/12/19 11:19:28;;;;;;;8.32;6.65;;;;;;;32.42;65.69;100920.50;4945099;28;70116;-40
2023/12/19 11:22:27;;;;;;;7.25;6.22;;;;;;;32.52;66.12;100941.72;4970355;28;66336;-40
2023/12/19 11:25:27;;;;;;;6.38;5.75;;;;;;;32.46;66.59;100957.88;4922768;28;69571;-42
2023/12/19 11:28:02;;;;;;;7.45;5.85;;;;;;;32.52;65.83;100955.28;4976816;28;66425;-40
2023/12/19 11:30:37;;;;;;;8.77;6.03;;;;;;;32.46;66.44;100955.16;4946008;28;69070;-40
2023/12/19 11:33:13;;;;;;;6.40;5.35;;;;;;;32.34;66.79;100945.25;4977022;28;65260;-41
2023/12/19 11:35:44;;;;;;;7.88;5.88;;;;;;;32.76;62.96;100970.59;4968347;28;69770;-39
2023/12/19 11:38:14;;;;;;;7.03;4.80;;;;;;;32.88;62.56;100963.31;4975230;28;66265;-40
2023/12/19 11:40:49;;;;;;;4.85;4.45;;;;;;;32.93;62.65;100968.03;4970837;28;70274;-41